sensor_id;sensor_type;location;lat;lon;timestamp;temperature;humidity
38860;DHT22;24609;48.316;16.174;2022-08-03T00:01:38;16.40;99.90
38860;DHT22;24609;48.316;16.174;2022-08-03T00:04:05;16.40;99.90
38860;DHT22;24609;48.316;16.174;2022-08-03T00:06:31;16.40;99.90
38860;DHT22;24609;48.316;16.174;2022-08-03T00:08:56;16.40;99.90
38860;DHT22;24609;48.316;16.174;2022-08-03T00:11:22;16.50;99.90
38860;DHT22;24609;48.316;16.174;2022-08-03T00:13:48;16.50;99.90
38860;DHT22;24609;48.316;16.174;2022-08-03T00:16:14;16.40;99.90
38860;DHT22;24609;48.316;16.174;2022-08-03T00:18:40;16.40;99.90
38860;DHT22;24609;48.316;16.174;2022-08-03T00:21:06;16.40;99.90
38860;DHT22;24609;48.316;16.174;2022-08-03T00:23:32;16.40;99.90
38860;DHT22;24609;48.316;16.174;2022-08-03T00:25:58;16.30;99.90
38860;DHT22;24609;48.316;16.174;2022-08-03T00:28:24;16.30;99.90
38860;DHT22;24609;48.316;16.174;2022-08-03T00:30:50;16.20;99.90
38860;DHT22;24609;48.316;16.174;2022-08-03T00:33:15;16.20;99.90
38860;DHT22;24609;48.316;16.174;2022-08-03T00:35:41;16.10;99.90
38860;DHT22;24609;48.316;16.174;2022-08-03T00:38:07;16.10;99.90
38860;DHT22;24609;48.316;16.174;2022-08-03T00:40:33;16.00;99.90
38860;DHT22;24609;48.316;16.174;2022-08-03T00:43:02;16.00;99.90
38860;DHT22;24609;48.316;16.174;2022-08-03T00:45:30;16.00;99.90
38860;DHT22;24609;48.316;16.174;2022-08-03T00:47:56;16.00;99.90
38860;DHT22;24609;48.316;16.174;2022-08-03T00:50:23;16.00;99.90
38860;DHT22;24609;48.316;16.174;2022-08-03T00:52:52;16.00;99.90
38860;DHT22;24609;48.316;16.174;2022-08-03T00:55:18;16.00;99.90
38860;DHT22;24609;48.316;16.174;2022-08-03T00:57:45;15.90;99.90
38860;DHT22;24609;48.316;16.174;2022-08-03T01:00:13;15.90;99.90
38860;DHT22;24609;48.316;16.174;2022-08-03T01:02:40;15.90;99.90
38860;DHT22;24609;48.316;16.174;2022-08-03T01:05:07;15.90;99.90
38860;DHT22;24609;48.316;16.174;2022-08-03T01:13:02;15.80;99.90
38860;DHT22;24609;48.316;16.174;2022-08-03T01:15:42;15.70;99.90
38860;DHT22;24609;48.316;16.174;2022-08-03T01:18:16;15.70;99.90
38860;DHT22;24609;48.316;16.174;2022-08-03T01:20:50;15.60;99.90
38860;DHT22;24609;48.316;16.174;2022-08-03T01:29:32;15.60;99.90
38860;DHT22;24609;48.316;16.174;2022-08-03T01:32:04;15.60;99.90
38860;DHT22;24609;48.316;16.174;2022-08-03T01:34:38;15.60;99.90
38860;DHT22;24609;48.316;16.174;2022-08-03T01:37:06;15.50;99.90
38860;DHT22;24609;48.316;16.174;2022-08-03T01:39:36;15.40;99.90
38860;DHT22;24609;48.316;16.174;2022-08-03T01:42:05;15.30;99.90
38860;DHT22;24609;48.316;16.174;2022-08-03T01:44:37;15.30;99.90
38860;DHT22;24609;48.316;16.174;2022-08-03T01:47:05;15.20;99.90
38860;DHT22;24609;48.316;16.174;2022-08-03T01:49:36;15.10;99.90
38860;DHT22;24609;48.316;16.174;2022-08-03T01:52:04;15.10;99.90
38860;DHT22;24609;48.316;16.174;2022-08-03T01:54:34;15.10;99.90
38860;DHT22;24609;48.316;16.174;2022-08-03T01:57:02;15.20;99.90
38860;DHT22;24609;48.316;16.174;2022-08-03T01:59:29;15.20;99.90
38860;DHT22;24609;48.316;16.174;2022-08-03T02:01:56;15.30;99.90
38860;DHT22;24609;48.316;16.174;2022-08-03T02:04:25;15.20;99.90
38860;DHT22;24609;48.316;16.174;2022-08-03T02:06:53;15.20;99.90
38860;DHT22;24609;48.316;16.174;2022-08-03T02:09:20;15.10;99.90
38860;DHT22;24609;48.316;16.174;2022-08-03T02:11:47;15.10;99.90
38860;DHT22;24609;48.316;16.174;2022-08-03T02:14:15;15.10;99.90
38860;DHT22;24609;48.316;16.174;2022-08-03T02:16:42;15.00;99.90
38860;DHT22;24609;48.316;16.174;2022-08-03T02:19:10;15.10;99.90
38860;DHT22;24609;48.316;16.174;2022-08-03T02:21:36;15.10;99.90
38860;DHT22;24609;48.316;16.174;2022-08-03T02:24:03;15.10;99.90
38860;DHT22;24609;48.316;16.174;2022-08-03T02:26:30;15.10;99.90
38860;DHT22;24609;48.316;16.174;2022-08-03T02:29:04;15.20;99.90
38860;DHT22;24609;48.316;16.174;2022-08-03T02:31:33;15.10;99.90
38860;DHT22;24609;48.316;16.174;2022-08-03T02:34:01;15.20;99.90
38860;DHT22;24609;48.316;16.174;2022-08-03T02:36:30;15.20;99.90
38860;DHT22;24609;48.316;16.174;2022-08-03T02:38:58;15.10;99.90
38860;DHT22;24609;48.316;16.174;2022-08-03T02:41:35;15.00;99.90
38860;DHT22;24609;48.316;16.174;2022-08-03T02:44:06;15.00;99.90
38860;DHT22;24609;48.316;16.174;2022-08-03T02:46:33;15.00;99.90
38860;DHT22;24609;48.316;16.174;2022-08-03T02:49:01;15.00;99.90
38860;DHT22;24609;48.316;16.174;2022-08-03T02:51:30;15.00;99.90
38860;DHT22;24609;48.316;16.174;2022-08-03T02:53:59;14.90;99.90
38860;DHT22;24609;48.316;16.174;2022-08-03T02:56:26;14.90;99.90
38860;DHT22;24609;48.316;16.174;2022-08-03T02:58:54;14.90;99.90
38860;DHT22;24609;48.316;16.174;2022-08-03T03:01:25;14.80;99.90
38860;DHT22;24609;48.316;16.174;2022-08-03T03:03:53;14.80;99.90
38860;DHT22;24609;48.316;16.174;2022-08-03T03:06:20;14.70;99.90
38860;DHT22;24609;48.316;16.174;2022-08-03T03:08:47;14.70;99.90
38860;DHT22;24609;48.316;16.174;2022-08-03T03:11:14;14.70;99.90
38860;DHT22;24609;48.316;16.174;2022-08-03T03:13:42;14.60;99.90
38860;DHT22;24609;48.316;16.174;2022-08-03T03:16:11;14.70;99.90
38860;DHT22;24609;48.316;16.174;2022-08-03T03:18:38;14.70;99.90
38860;DHT22;24609;48.316;16.174;2022-08-03T03:21:07;14.70;99.90
38860;DHT22;24609;48.316;16.174;2022-08-03T03:23:36;14.70;99.90
38860;DHT22;24609;48.316;16.174;2022-08-03T03:26:03;14.80;99.90
38860;DHT22;24609;48.316;16.174;2022-08-03T03:28:30;14.80;99.90
38860;DHT22;24609;48.316;16.174;2022-08-03T03:30:57;14.80;99.90
38860;DHT22;24609;48.316;16.174;2022-08-03T03:33:23;14.80;99.90
38860;DHT22;24609;48.316;16.174;2022-08-03T03:35:49;14.80;99.90
38860;DHT22;24609;48.316;16.174;2022-08-03T03:38:16;14.80;99.90
38860;DHT22;24609;48.316;16.174;2022-08-03T03:40:43;14.70;99.90
38860;DHT22;24609;48.316;16.174;2022-08-03T03:43:10;14.70;99.90
38860;DHT22;24609;48.316;16.174;2022-08-03T03:45:37;14.70;99.90
38860;DHT22;24609;48.316;16.174;2022-08-03T03:48:05;14.70;99.90
38860;DHT22;24609;48.316;16.174;2022-08-03T03:50:32;14.70;99.90
38860;DHT22;24609;48.316;16.174;2022-08-03T03:52:58;14.70;99.90
38860;DHT22;24609;48.316;16.174;2022-08-03T03:55:23;14.80;99.90
38860;DHT22;24609;48.316;16.174;2022-08-03T03:57:49;14.90;99.90
38860;DHT22;24609;48.316;16.174;2022-08-03T04:00:16;14.90;99.90
38860;DHT22;24609;48.316;16.174;2022-08-03T04:02:43;15.00;99.90
38860;DHT22;24609;48.316;16.174;2022-08-03T04:05:09;14.90;99.90
38860;DHT22;24609;48.316;16.174;2022-08-03T04:10:41;15.00;99.90
38860;DHT22;24609;48.316;16.174;2022-08-03T04:13:23;15.10;99.90
38860;DHT22;24609;48.316;16.174;2022-08-03T04:15:52;15.10;99.90
38860;DHT22;24609;48.316;16.174;2022-08-03T04:18:20;15.20;99.90
38860;DHT22;24609;48.316;16.174;2022-08-03T04:20:47;15.30;99.90
38860;DHT22;24609;48.316;16.174;2022-08-03T04:23:18;15.60;99.90
38860;DHT22;24609;48.316;16.174;2022-08-03T04:25:47;15.50;99.90
38860;DHT22;24609;48.316;16.174;2022-08-03T04:28:15;15.60;99.90
38860;DHT22;24609;48.316;16.174;2022-08-03T04:30:44;15.60;99.90
38860;DHT22;24609;48.316;16.174;2022-08-03T04:33:12;15.50;99.90
38860;DHT22;24609;48.316;16.174;2022-08-03T04:35:39;15.50;99.90
38860;DHT22;24609;48.316;16.174;2022-08-03T04:38:08;15.50;99.90
38860;DHT22;24609;48.316;16.174;2022-08-03T04:40:38;15.80;99.90
38860;DHT22;24609;48.316;16.174;2022-08-03T04:43:04;16.10;99.90
38860;DHT22;24609;48.316;16.174;2022-08-03T04:45:32;16.80;99.90
38860;DHT22;24609;48.316;16.174;2022-08-03T04:47:58;17.10;99.90
38860;DHT22;24609;48.316;16.174;2022-08-03T04:50:25;17.50;99.90
38860;DHT22;24609;48.316;16.174;2022-08-03T04:52:52;18.10;99.90
38860;DHT22;24609;48.316;16.174;2022-08-03T04:55:32;18.30;99.90
38860;DHT22;24609;48.316;16.174;2022-08-03T04:58:00;18.30;99.90
38860;DHT22;24609;48.316;16.174;2022-08-03T05:00:26;18.10;99.90
38860;DHT22;24609;48.316;16.174;2022-08-03T05:02:52;18.10;99.90
38860;DHT22;24609;48.316;16.174;2022-08-03T05:05:19;18.30;99.90
38860;DHT22;24609;48.316;16.174;2022-08-03T05:07:44;18.30;99.90
38860;DHT22;24609;48.316;16.174;2022-08-03T05:10:11;18.30;99.90
38860;DHT22;24609;48.316;16.174;2022-08-03T05:12:38;18.30;99.90
38860;DHT22;24609;48.316;16.174;2022-08-03T05:15:05;18.30;99.90
38860;DHT22;24609;48.316;16.174;2022-08-03T05:17:31;18.20;99.90
38860;DHT22;24609;48.316;16.174;2022-08-03T05:19:58;18.10;99.90
38860;DHT22;24609;48.316;16.174;2022-08-03T05:22:24;18.00;99.90
38860;DHT22;24609;48.316;16.174;2022-08-03T05:24:50;18.00;99.90
38860;DHT22;24609;48.316;16.174;2022-08-03T05:27:16;18.10;99.90
38860;DHT22;24609;48.316;16.174;2022-08-03T05:29:47;18.10;99.90
38860;DHT22;24609;48.316;16.174;2022-08-03T05:32:13;18.20;99.90
38860;DHT22;24609;48.316;16.174;2022-08-03T05:34:39;18.30;99.90
38860;DHT22;24609;48.316;16.174;2022-08-03T05:37:05;18.30;99.90
38860;DHT22;24609;48.316;16.174;2022-08-03T05:39:32;18.50;99.90
38860;DHT22;24609;48.316;16.174;2022-08-03T05:41:58;18.60;99.90
38860;DHT22;24609;48.316;16.174;2022-08-03T05:44:24;18.60;99.90
38860;DHT22;24609;48.316;16.174;2022-08-03T05:46:50;18.70;99.90
38860;DHT22;24609;48.316;16.174;2022-08-03T05:49:16;18.80;99.90
38860;DHT22;24609;48.316;16.174;2022-08-03T05:51:42;18.90;99.90
38860;DHT22;24609;48.316;16.174;2022-08-03T05:54:08;19.20;99.90
38860;DHT22;24609;48.316;16.174;2022-08-03T05:56:34;19.60;99.90
38860;DHT22;24609;48.316;16.174;2022-08-03T05:58:59;19.50;99.90
38860;DHT22;24609;48.316;16.174;2022-08-03T06:01:25;19.50;99.90
38860;DHT22;24609;48.316;16.174;2022-08-03T06:03:51;19.80;99.90
38860;DHT22;24609;48.316;16.174;2022-08-03T06:06:17;20.20;99.90
38860;DHT22;24609;48.316;16.174;2022-08-03T06:08:44;21.20;99.90
38860;DHT22;24609;48.316;16.174;2022-08-03T06:11:10;22.30;99.90
38860;DHT22;24609;48.316;16.174;2022-08-03T06:13:37;23.30;1.00
38860;DHT22;24609;48.316;16.174;2022-08-03T06:16:03;24.30;1.00
38860;DHT22;24609;48.316;16.174;2022-08-03T06:18:29;23.90;1.00
38860;DHT22;24609;48.316;16.174;2022-08-03T06:20:54;24.40;1.00
38860;DHT22;24609;48.316;16.174;2022-08-03T06:23:20;24.10;99.90
38860;DHT22;24609;48.316;16.174;2022-08-03T06:25:46;25.00;99.90
38860;DHT22;24609;48.316;16.174;2022-08-03T06:28:12;24.40;99.90
38860;DHT22;24609;48.316;16.174;2022-08-03T06:30:39;23.80;1.00
38860;DHT22;24609;48.316;16.174;2022-08-03T06:33:05;24.20;1.00
38860;DHT22;24609;48.316;16.174;2022-08-03T06:35:30;24.60;1.00
38860;DHT22;24609;48.316;16.174;2022-08-03T06:37:56;26.50;1.00
38860;DHT22;24609;48.316;16.174;2022-08-03T06:40:23;26.60;1.00
38860;DHT22;24609;48.316;16.174;2022-08-03T06:42:57;26.30;99.90
38860;DHT22;24609;48.316;16.174;2022-08-03T06:45:24;27.20;99.90
38860;DHT22;24609;48.316;16.174;2022-08-03T06:48:00;28.40;99.90
38860;DHT22;24609;48.316;16.174;2022-08-03T06:50:26;28.30;99.90
38860;DHT22;24609;48.316;16.174;2022-08-03T06:52:52;27.20;99.90
38860;DHT22;24609;48.316;16.174;2022-08-03T06:55:18;26.10;99.90
38860;DHT22;24609;48.316;16.174;2022-08-03T06:57:44;26.10;99.90
38860;DHT22;24609;48.316;16.174;2022-08-03T07:00:10;27.50;11.90
38860;DHT22;24609;48.316;16.174;2022-08-03T07:02:36;27.20;99.90
38860;DHT22;24609;48.316;16.174;2022-08-03T07:05:03;25.90;99.90
38860;DHT22;24609;48.316;16.174;2022-08-03T07:07:29;26.60;42.60
38860;DHT22;24609;48.316;16.174;2022-08-03T07:09:54;25.90;1.00
38860;DHT22;24609;48.316;16.174;2022-08-03T07:12:20;25.80;1.00
38860;DHT22;24609;48.316;16.174;2022-08-03T07:14:46;25.10;99.90
38860;DHT22;24609;48.316;16.174;2022-08-03T07:17:11;25.10;99.90
38860;DHT22;24609;48.316;16.174;2022-08-03T07:19:37;25.20;99.90
38860;DHT22;24609;48.316;16.174;2022-08-03T07:22:03;25.70;99.90
38860;DHT22;24609;48.316;16.174;2022-08-03T07:24:29;26.80;99.90
38860;DHT22;24609;48.316;16.174;2022-08-03T07:26:54;27.50;1.00
38860;DHT22;24609;48.316;16.174;2022-08-03T07:29:20;28.30;7.70
38860;DHT22;24609;48.316;16.174;2022-08-03T07:31:46;27.30;99.90
38860;DHT22;24609;48.316;16.174;2022-08-03T07:34:11;27.90;1.00
38860;DHT22;24609;48.316;16.174;2022-08-03T07:36:37;28.10;1.00
38860;DHT22;24609;48.316;16.174;2022-08-03T07:39:03;28.30;99.90
38860;DHT22;24609;48.316;16.174;2022-08-03T07:41:29;27.60;1.00
38860;DHT22;24609;48.316;16.174;2022-08-03T07:43:56;27.80;1.00
38860;DHT22;24609;48.316;16.174;2022-08-03T07:46:22;28.10;1.00
38860;DHT22;24609;48.316;16.174;2022-08-03T07:48:48;28.20;99.90
38860;DHT22;24609;48.316;16.174;2022-08-03T07:51:13;28.50;99.90
38860;DHT22;24609;48.316;16.174;2022-08-03T07:53:39;28.20;99.90
38860;DHT22;24609;48.316;16.174;2022-08-03T07:56:05;28.30;99.90
38860;DHT22;24609;48.316;16.174;2022-08-03T07:58:30;27.40;1.00
38860;DHT22;24609;48.316;16.174;2022-08-03T08:00:56;27.50;99.90
38860;DHT22;24609;48.316;16.174;2022-08-03T08:03:22;26.80;1.00
38860;DHT22;24609;48.316;16.174;2022-08-03T08:05:48;27.20;91.90
38860;DHT22;24609;48.316;16.174;2022-08-03T08:08:14;28.30;99.90
38860;DHT22;24609;48.316;16.174;2022-08-03T08:10:40;29.70;1.00
38860;DHT22;24609;48.316;16.174;2022-08-03T08:13:05;29.90;99.90
38860;DHT22;24609;48.316;16.174;2022-08-03T08:15:31;29.50;1.00
38860;DHT22;24609;48.316;16.174;2022-08-03T08:17:59;31.10;99.90
38860;DHT22;24609;48.316;16.174;2022-08-03T08:20:28;33.10;99.90
38860;DHT22;24609;48.316;16.174;2022-08-03T08:22:55;33.20;99.90
38860;DHT22;24609;48.316;16.174;2022-08-03T08:25:22;34.30;99.90
38860;DHT22;24609;48.316;16.174;2022-08-03T08:27:49;36.00;1.00
38860;DHT22;24609;48.316;16.174;2022-08-03T08:30:17;36.50;99.90
38860;DHT22;24609;48.316;16.174;2022-08-03T08:32:46;36.30;99.90
38860;DHT22;24609;48.316;16.174;2022-08-03T08:35:13;36.60;99.90
38860;DHT22;24609;48.316;16.174;2022-08-03T08:37:39;37.40;99.90
38860;DHT22;24609;48.316;16.174;2022-08-03T08:40:06;37.10;54.40
38860;DHT22;24609;48.316;16.174;2022-08-03T08:42:32;38.10;7.90
38860;DHT22;24609;48.316;16.174;2022-08-03T08:44:59;38.50;1.00
38860;DHT22;24609;48.316;16.174;2022-08-03T08:47:29;38.60;1.00
38860;DHT22;24609;48.316;16.174;2022-08-03T08:49:57;37.20;1.00
38860;DHT22;24609;48.316;16.174;2022-08-03T08:52:24;37.50;1.00
38860;DHT22;24609;48.316;16.174;2022-08-03T08:54:56;38.10;1.00
38860;DHT22;24609;48.316;16.174;2022-08-03T08:57:29;38.00;1.00
38860;DHT22;24609;48.316;16.174;2022-08-03T08:59:55;37.70;1.00
38860;DHT22;24609;48.316;16.174;2022-08-03T09:02:23;36.20;1.00
38860;DHT22;24609;48.316;16.174;2022-08-03T09:04:49;37.10;1.00
38860;DHT22;24609;48.316;16.174;2022-08-03T09:07:15;37.40;1.00
38860;DHT22;24609;48.316;16.174;2022-08-03T09:09:42;37.00;1.00
38860;DHT22;24609;48.316;16.174;2022-08-03T09:12:08;37.30;1.00
38860;DHT22;24609;48.316;16.174;2022-08-03T09:14:34;36.30;1.00
38860;DHT22;24609;48.316;16.174;2022-08-03T09:17:01;37.30;1.00
38860;DHT22;24609;48.316;16.174;2022-08-03T09:19:29;36.10;1.00
38860;DHT22;24609;48.316;16.174;2022-08-03T09:22:24;35.80;1.00
38860;DHT22;24609;48.316;16.174;2022-08-03T09:25:02;36.60;1.00
38860;DHT22;24609;48.316;16.174;2022-08-03T09:27:43;37.90;1.00
38860;DHT22;24609;48.316;16.174;2022-08-03T09:30:17;38.90;1.00
38860;DHT22;24609;48.316;16.174;2022-08-03T09:32:43;39.70;99.90
38860;DHT22;24609;48.316;16.174;2022-08-03T09:35:11;39.10;99.90
38860;DHT22;24609;48.316;16.174;2022-08-03T09:37:37;38.10;99.90
38860;DHT22;24609;48.316;16.174;2022-08-03T09:40:03;39.00;99.90
38860;DHT22;24609;48.316;16.174;2022-08-03T09:42:29;41.30;99.90
38860;DHT22;24609;48.316;16.174;2022-08-03T09:44:55;40.50;99.90
38860;DHT22;24609;48.316;16.174;2022-08-03T09:47:30;41.40;99.90
38860;DHT22;24609;48.316;16.174;2022-08-03T09:49:58;43.00;99.90
38860;DHT22;24609;48.316;16.174;2022-08-03T09:52:37;42.10;99.90
38860;DHT22;24609;48.316;16.174;2022-08-03T09:55:11;41.90;99.90
38860;DHT22;24609;48.316;16.174;2022-08-03T09:57:38;41.60;99.90
38860;DHT22;24609;48.316;16.174;2022-08-03T10:00:10;41.80;99.90
38860;DHT22;24609;48.316;16.174;2022-08-03T10:02:38;40.60;99.90
38860;DHT22;24609;48.316;16.174;2022-08-03T10:05:05;41.60;99.90
38860;DHT22;24609;48.316;16.174;2022-08-03T10:07:44;40.40;99.90
38860;DHT22;24609;48.316;16.174;2022-08-03T10:10:10;40.00;99.90
38860;DHT22;24609;48.316;16.174;2022-08-03T10:12:37;42.60;99.90
38860;DHT22;24609;48.316;16.174;2022-08-03T10:15:05;43.40;99.90
38860;DHT22;24609;48.316;16.174;2022-08-03T10:17:31;45.50;99.90
38860;DHT22;24609;48.316;16.174;2022-08-03T10:19:56;44.80;99.90
38860;DHT22;24609;48.316;16.174;2022-08-03T10:22:28;44.60;99.90
38860;DHT22;24609;48.316;16.174;2022-08-03T10:24:59;45.70;99.90
38860;DHT22;24609;48.316;16.174;2022-08-03T10:27:30;42.70;99.90
38860;DHT22;24609;48.316;16.174;2022-08-03T10:30:00;44.60;99.90
38860;DHT22;24609;48.316;16.174;2022-08-03T10:32:39;45.60;99.90
38860;DHT22;24609;48.316;16.174;2022-08-03T10:35:15;45.20;99.90
38860;DHT22;24609;48.316;16.174;2022-08-03T10:38:01;46.50;99.90
38860;DHT22;24609;48.316;16.174;2022-08-03T10:40:30;46.70;99.90
38860;DHT22;24609;48.316;16.174;2022-08-03T10:43:08;46.70;99.90
38860;DHT22;24609;48.316;16.174;2022-08-03T10:45:40;46.20;99.90
38860;DHT22;24609;48.316;16.174;2022-08-03T10:48:07;45.80;99.90
38860;DHT22;24609;48.316;16.174;2022-08-03T10:50:34;47.20;99.90
38860;DHT22;24609;48.316;16.174;2022-08-03T10:53:01;48.50;99.90
38860;DHT22;24609;48.316;16.174;2022-08-03T10:55:32;48.30;99.90
38860;DHT22;24609;48.316;16.174;2022-08-03T11:01:11;45.00;99.90
38860;DHT22;24609;48.316;16.174;2022-08-03T11:06:23;47.30;99.90
38860;DHT22;24609;48.316;16.174;2022-08-03T11:11:35;47.80;99.90
38860;DHT22;24609;48.316;16.174;2022-08-03T11:14:18;48.00;99.90
38860;DHT22;24609;48.316;16.174;2022-08-03T11:16:47;48.60;99.90
38860;DHT22;24609;48.316;16.174;2022-08-03T11:19:16;46.50;99.90
38860;DHT22;24609;48.316;16.174;2022-08-03T11:30:05;45.80;99.90
38860;DHT22;24609;48.316;16.174;2022-08-03T11:35:15;47.10;99.90
38860;DHT22;24609;48.316;16.174;2022-08-03T11:48:27;45.80;99.90
38860;DHT22;24609;48.316;16.174;2022-08-03T11:50:53;45.20;99.90
38860;DHT22;24609;48.316;16.174;2022-08-03T11:53:19;45.40;99.90
38860;DHT22;24609;48.316;16.174;2022-08-03T11:55:46;45.80;99.90
38860;DHT22;24609;48.316;16.174;2022-08-03T11:58:20;45.70;99.90
38860;DHT22;24609;48.316;16.174;2022-08-03T12:00:46;46.10;99.90
38860;DHT22;24609;48.316;16.174;2022-08-03T12:03:14;43.90;99.90
38860;DHT22;24609;48.316;16.174;2022-08-03T12:05:50;44.40;99.90
38860;DHT22;24609;48.316;16.174;2022-08-03T12:08:20;44.30;99.90
38860;DHT22;24609;48.316;16.174;2022-08-03T12:10:54;44.90;99.90
38860;DHT22;24609;48.316;16.174;2022-08-03T12:13:21;45.70;99.90
38860;DHT22;24609;48.316;16.174;2022-08-03T12:15:52;47.50;99.90
38860;DHT22;24609;48.316;16.174;2022-08-03T12:18:20;47.00;99.90
38860;DHT22;24609;48.316;16.174;2022-08-03T12:20:50;47.10;99.90
38860;DHT22;24609;48.316;16.174;2022-08-03T12:23:17;47.60;99.90
38860;DHT22;24609;48.316;16.174;2022-08-03T12:25:45;45.90;99.90
38860;DHT22;24609;48.316;16.174;2022-08-03T12:28:19;46.80;99.90
38860;DHT22;24609;48.316;16.174;2022-08-03T12:30:49;46.30;99.90
38860;DHT22;24609;48.316;16.174;2022-08-03T12:33:21;46.50;99.90
38860;DHT22;24609;48.316;16.174;2022-08-03T12:35:49;46.40;99.90
38860;DHT22;24609;48.316;16.174;2022-08-03T12:38:20;45.40;96.90
38860;DHT22;24609;48.316;16.174;2022-08-03T12:40:58;46.10;99.90
38860;DHT22;24609;48.316;16.174;2022-08-03T12:43:23;47.50;99.90
38860;DHT22;24609;48.316;16.174;2022-08-03T12:45:49;45.90;98.80
38860;DHT22;24609;48.316;16.174;2022-08-03T12:48:15;45.30;97.90
38860;DHT22;24609;48.316;16.174;2022-08-03T12:50:41;43.60;94.70
38860;DHT22;24609;48.316;16.174;2022-08-03T12:53:08;44.20;97.80
38860;DHT22;24609;48.316;16.174;2022-08-03T12:55:38;45.10;98.90
38860;DHT22;24609;48.316;16.174;2022-08-03T12:58:05;45.50;97.10
38860;DHT22;24609;48.316;16.174;2022-08-03T13:00:32;47.10;99.90
38860;DHT22;24609;48.316;16.174;2022-08-03T13:03:05;46.80;99.40
38860;DHT22;24609;48.316;16.174;2022-08-03T13:05:41;45.90;93.00
38860;DHT22;24609;48.316;16.174;2022-08-03T13:08:23;46.10;94.80
38860;DHT22;24609;48.316;16.174;2022-08-03T13:10:49;44.90;99.90
38860;DHT22;24609;48.316;16.174;2022-08-03T13:13:14;44.90;92.50
38860;DHT22;24609;48.316;16.174;2022-08-03T13:15:41;44.70;91.20
38860;DHT22;24609;48.316;16.174;2022-08-03T13:18:07;45.10;94.20
38860;DHT22;24609;48.316;16.174;2022-08-03T13:20:33;44.40;92.80
38860;DHT22;24609;48.316;16.174;2022-08-03T13:22:59;44.70;92.30
38860;DHT22;24609;48.316;16.174;2022-08-03T13:25:25;44.90;91.60
38860;DHT22;24609;48.316;16.174;2022-08-03T13:27:50;44.80;91.00
38860;DHT22;24609;48.316;16.174;2022-08-03T13:30:17;45.10;93.70
38860;DHT22;24609;48.316;16.174;2022-08-03T13:32:43;45.40;91.00
38860;DHT22;24609;48.316;16.174;2022-08-03T13:35:09;45.60;94.10
38860;DHT22;24609;48.316;16.174;2022-08-03T13:37:36;44.90;92.80
38860;DHT22;24609;48.316;16.174;2022-08-03T13:40:05;45.30;93.60
38860;DHT22;24609;48.316;16.174;2022-08-03T13:42:32;47.30;98.10
38860;DHT22;24609;48.316;16.174;2022-08-03T13:44:59;47.00;91.90
38860;DHT22;24609;48.316;16.174;2022-08-03T13:47:26;47.20;94.30
38860;DHT22;24609;48.316;16.174;2022-08-03T13:49:52;46.00;90.80
38860;DHT22;24609;48.316;16.174;2022-08-03T13:52:18;46.30;81.40
38860;DHT22;24609;48.316;16.174;2022-08-03T13:54:44;46.10;92.30
38860;DHT22;24609;48.316;16.174;2022-08-03T13:57:10;46.60;76.90
38860;DHT22;24609;48.316;16.174;2022-08-03T13:59:36;45.80;75.00
38860;DHT22;24609;48.316;16.174;2022-08-03T14:02:03;46.20;76.30
38860;DHT22;24609;48.316;16.174;2022-08-03T14:04:29;46.50;74.20
38860;DHT22;24609;48.316;16.174;2022-08-03T14:06:55;46.20;74.00
38860;DHT22;24609;48.316;16.174;2022-08-03T14:09:21;47.60;24.90
38860;DHT22;24609;48.316;16.174;2022-08-03T14:11:46;46.40;18.50
38860;DHT22;24609;48.316;16.174;2022-08-03T14:14:12;46.10;16.70
38860;DHT22;24609;48.316;16.174;2022-08-03T14:16:38;47.40;22.10
38860;DHT22;24609;48.316;16.174;2022-08-03T14:19:04;47.40;17.30
38860;DHT22;24609;48.316;16.174;2022-08-03T14:21:31;46.00;16.00
38860;DHT22;24609;48.316;16.174;2022-08-03T14:23:57;46.50;16.60
38860;DHT22;24609;48.316;16.174;2022-08-03T14:26:23;45.80;20.80
38860;DHT22;24609;48.316;16.174;2022-08-03T14:28:49;45.30;21.20
38860;DHT22;24609;48.316;16.174;2022-08-03T14:31:15;43.40;18.10
38860;DHT22;24609;48.316;16.174;2022-08-03T14:33:41;43.00;18.70
38860;DHT22;24609;48.316;16.174;2022-08-03T14:36:07;43.60;19.70
38860;DHT22;24609;48.316;16.174;2022-08-03T14:38:33;45.40;20.10
38860;DHT22;24609;48.316;16.174;2022-08-03T14:40:58;46.10;20.00
38860;DHT22;24609;48.316;16.174;2022-08-03T14:43:24;47.00;15.40
38860;DHT22;24609;48.316;16.174;2022-08-03T14:45:51;46.10;12.00
38860;DHT22;24609;48.316;16.174;2022-08-03T14:48:19;46.00;9.80
38860;DHT22;24609;48.316;16.174;2022-08-03T14:50:45;45.10;5.60
38860;DHT22;24609;48.316;16.174;2022-08-03T14:53:11;43.50;7.90
38860;DHT22;24609;48.316;16.174;2022-08-03T14:55:37;42.60;7.10
38860;DHT22;24609;48.316;16.174;2022-08-03T14:58:02;44.40;10.20
38860;DHT22;24609;48.316;16.174;2022-08-03T15:00:34;45.80;12.20
38860;DHT22;24609;48.316;16.174;2022-08-03T15:03:01;45.70;12.80
38860;DHT22;24609;48.316;16.174;2022-08-03T15:05:27;45.10;7.90
38860;DHT22;24609;48.316;16.174;2022-08-03T15:07:52;44.90;8.80
38860;DHT22;24609;48.316;16.174;2022-08-03T15:10:18;44.60;9.00
38860;DHT22;24609;48.316;16.174;2022-08-03T15:12:44;43.90;7.20
38860;DHT22;24609;48.316;16.174;2022-08-03T15:15:10;45.30;14.90
38860;DHT22;24609;48.316;16.174;2022-08-03T15:17:36;45.30;11.50
38860;DHT22;24609;48.316;16.174;2022-08-03T15:20:03;45.50;11.60
38860;DHT22;24609;48.316;16.174;2022-08-03T15:22:29;46.20;9.60
38860;DHT22;24609;48.316;16.174;2022-08-03T15:24:55;46.20;11.00
38860;DHT22;24609;48.316;16.174;2022-08-03T15:27:21;45.70;8.60
38860;DHT22;24609;48.316;16.174;2022-08-03T15:29:47;45.30;11.90
38860;DHT22;24609;48.316;16.174;2022-08-03T15:32:13;45.30;8.70
38860;DHT22;24609;48.316;16.174;2022-08-03T15:34:38;45.10;6.10
38860;DHT22;24609;48.316;16.174;2022-08-03T15:37:05;43.90;2.90
38860;DHT22;24609;48.316;16.174;2022-08-03T15:39:31;43.80;4.80
38860;DHT22;24609;48.316;16.174;2022-08-03T15:41:57;43.60;3.50
38860;DHT22;24609;48.316;16.174;2022-08-03T15:44:23;43.60;3.70
38860;DHT22;24609;48.316;16.174;2022-08-03T15:46:51;43.00;2.10
38860;DHT22;24609;48.316;16.174;2022-08-03T15:49:17;44.30;5.20
38860;DHT22;24609;48.316;16.174;2022-08-03T15:51:43;44.20;3.20
38860;DHT22;24609;48.316;16.174;2022-08-03T15:54:08;41.40;1.00
38860;DHT22;24609;48.316;16.174;2022-08-03T15:56:34;37.30;1.00
38860;DHT22;24609;48.316;16.174;2022-08-03T15:59:00;34.20;1.00
38860;DHT22;24609;48.316;16.174;2022-08-03T16:01:26;32.90;1.00
38860;DHT22;24609;48.316;16.174;2022-08-03T16:03:52;32.00;2.90
38860;DHT22;24609;48.316;16.174;2022-08-03T16:06:18;31.50;5.90